Varmdo — SMXZ — position and weather

sailwx.info

Track history (hours):
 
Tides and Currents Weather Stations Pressure Air Temp Water Temp Dewpoint Dewpoint Depression Visibility Wind Speed Wind Dir Waves Ship Positions

Varmdo

Last reported at 2017-Nov-20 00:30 UTC. Time now 2017-Nov-21 21:12 UTC.
Position N 59°27' E 018°55'.

Length 38 m; draft 2.5 m.

Type: Passenger vessel. MMSI: 265520390.

Date/timePositionNaut miles runAvg speedWind from/ knotsBaromVisibWave heightAir tempDewpointWater temp
2017-Nov-20 00:30N 59°27' E 018°55'0 0.0
2017-Nov-20 00:00N 59°27' E 018°55'0 0.0
2017-Nov-19 23:30N 59°27' E 018°55'0 0.0
2017-Nov-19 23:00N 59°27' E 018°55'0 0.0
2017-Nov-19 22:27N 59°27' E 018°55'0 0.0
2017-Nov-19 22:00N 59°27' E 018°55'0 0.0
2017-Nov-19 21:30N 59°27' E 018°55'0 0.0
2017-Nov-19 20:51N 59°27' E 018°55'0 0.0
2017-Nov-19 20:15N 59°27' E 018°55'2 7.5
2017-Nov-19 20:00N 59°25' E 018°54'3 6.6
2017-Nov-19 19:30N 59°23' E 018°49'4 6.9
2017-Nov-19 18:59N 59°23' E 018°42'711.3
2017-Nov-19 18:23N 59°25' E 018°30'410.4
2017-Nov-19 18:00N 59°25' E 018°22'510.3
2017-Nov-19 17:30N 59°21' E 018°14'510.5
2017-Nov-19 17:01N 59°20' E 018°04'0 0.1
2017-Nov-19 16:28N 59°20' E 018°04'0 0.0
2017-Nov-19 16:00N 59°20' E 018°04'4 7.5
2017-Nov-19 15:31N 59°20' E 018°12'611.1
2017-Nov-19 15:00N 59°22' E 018°22'3 6.0
2017-Nov-19 14:29N 59°25' E 018°22'4 7.8
2017-Nov-19 14:00N 59°28' E 018°26'2 4.8
2017-Nov-19 13:30N 59°30' E 018°30'1 0.3
2017-Nov-19 10:08N 59°30' E 018°32'211.9
2017-Nov-19 10:01N 59°29' E 018°30'4 7.2
2017-Nov-19 09:30N 59°27' E 018°24'4 8.1
2017-Nov-19 08:59N 59°23' E 018°20'4 7.6
2017-Nov-19 08:30N 59°21' E 018°14'510.6
2017-Nov-19 08:01N 59°20' E 018°05'0 0.1
2017-Nov-19 07:28N 59°20' E 018°05'0 0.0
2017-Nov-19 06:58N 59°20' E 018°05'0 0.0
2017-Nov-19 06:28N 59°20' E 018°05'0 0.0
2017-Nov-19 05:58N 59°20' E 018°05'0 0.0
2017-Nov-19 05:28N 59°20' E 018°05'0 0.0
2017-Nov-19 04:58N 59°20' E 018°05'0 0.0
2017-Nov-19 04:28N 59°20' E 018°05'0 0.0
2017-Nov-19 03:58N 59°20' E 018°05'0 0.0
2017-Nov-19 03:28N 59°20' E 018°05'0 0.0
2017-Nov-19 02:58N 59°20' E 018°05'0 0.0
2017-Nov-19 02:28N 59°20' E 018°05'0 0.0
2017-Nov-19 01:58N 59°20' E 018°05'0 0.0
2017-Nov-19 01:28N 59°20' E 018°05'0 0.0
2017-Nov-19 00:58N 59°20' E 018°05'0 0.0
2017-Nov-19 00:28N 59°20' E 018°05'0 0.0
2017-Nov-18 23:58N 59°20' E 018°05'0 0.0
2017-Nov-18 23:28N 59°20' E 018°05'0 0.0
2017-Nov-18 22:55N 59°20' E 018°05'0 0.0
2017-Nov-18 22:28N 59°20' E 018°05'0 0.0
2017-Nov-18 21:58N 59°20' E 018°05'0 0.0
2017-Nov-18 21:28N 59°20' E 018°05'0 0.0
2017-Nov-18 20:58N 59°20' E 018°05'0 0.0
2017-Nov-18 20:28N 59°20' E 018°05'0 0.0
2017-Nov-18 19:58N 59°20' E 018°05'0 0.0
2017-Nov-18 19:28N 59°20' E 018°05'0 0.0
2017-Nov-18 18:58N 59°20' E 018°05'0 0.0
2017-Nov-18 18:28N 59°20' E 018°05'1 1.3
2017-Nov-18 18:00N 59°19' E 018°05'510.1
2017-Nov-18 17:30N 59°21' E 018°14'4 8.9
2017-Nov-18 17:00N 59°24' E 018°21'4 7.4
2017-Nov-18 16:30N 59°27' E 018°27'3 5.0
2017-Nov-18 16:00N 59°28' E 018°30'3 7.0
2017-Nov-18 15:30N 59°27' E 018°24'3 6.5
2017-Nov-18 15:00N 59°24' E 018°21'0 0.0
2017-Nov-18 14:30N 59°24' E 018°21'4 7.6
2017-Nov-18 14:00N 59°25' E 018°28'510.8
2017-Nov-18 13:31N 59°22' E 018°36'3 5.0
2017-Nov-18 12:54N 59°23' E 018°42'3 6.2
2017-Nov-18 12:26N 59°23' E 018°48'5 6.5
2017-Nov-18 11:37N 59°27' E 018°56'0 1.5
2017-Nov-18 11:30N 59°27' E 018°55'0 0.0
2017-Nov-18 10:57N 59°27' E 018°55'5 4.6
2017-Nov-18 09:53N 59°23' E 018°49'2 4.5
2017-Nov-18 09:23N 59°23' E 018°44'2 4.4
2017-Nov-18 08:55N 59°23' E 018°40'4 8.9
2017-Nov-18 08:30N 59°24' E 018°33'611.8
2017-Nov-18 08:01N 59°25' E 018°22'5 9.7
2017-Nov-18 07:31N 59°22' E 018°15'611.2
2017-Nov-18 07:01N 59°20' E 018°04'0 0.1
2017-Nov-18 06:30N 59°20' E 018°05'0 0.0
2017-Nov-18 05:57N 59°20' E 018°05'0 0.0
2017-Nov-18 05:28N 59°20' E 018°05'0 0.0
2017-Nov-18 05:01N 59°20' E 018°05'0 0.0
2017-Nov-18 04:31N 59°20' E 018°05'0 0.0
2017-Nov-18 03:58N 59°20' E 018°05'0 0.0
2017-Nov-18 03:31N 59°20' E 018°05'0 0.0
2017-Nov-18 02:58N 59°20' E 018°05'0 0.0
2017-Nov-18 02:28N 59°20' E 018°05'0 0.0
2017-Nov-18 02:00N 59°20' E 018°05'0 0.0
2017-Nov-18 01:28N 59°20' E 018°05'0 0.0
2017-Nov-18 01:01N 59°20' E 018°05'0 0.0
2017-Nov-18 00:28N 59°20' E 018°05'0 0.0
2017-Nov-18 00:01N 59°20' E 018°05'0 0.0
2017-Nov-17 23:28N 59°20' E 018°05'0 0.0
2017-Nov-17 23:01N 59°20' E 018°05'0 0.0
2017-Nov-17 22:31N 59°20' E 018°05'0 0.0
2017-Nov-17 22:01N 59°20' E 018°05'0 0.0
2017-Nov-17 21:28N 59°20' E 018°05'0 0.0
2017-Nov-17 20:58N 59°20' E 018°05'0 0.0
2017-Nov-17 20:31N 59°20' E 018°05'0 0.0
2017-Nov-17 19:58N 59°20' E 018°05'0 0.0
2017-Nov-17 19:28N 59°20' E 018°05'0 0.0
2017-Nov-17 18:58N 59°20' E 018°05'0 0.0
2017-Nov-17 18:30N 59°20' E 018°05'0 0.0
2017-Nov-17 17:58N 59°20' E 018°05'0 0.0
2017-Nov-17 17:31N 59°20' E 018°05'0 0.0
2017-Nov-17 16:58N 59°20' E 018°05'0 0.0
2017-Nov-17 16:30N 59°20' E 018°05'0 0.0
2017-Nov-17 16:00N 59°20' E 018°05'0 0.0
2017-Nov-17 15:31N 59°20' E 018°05'0 0.0
2017-Nov-17 15:01N 59°20' E 018°05'0 0.0
2017-Nov-17 14:31N 59°20' E 018°05'0 0.0
2017-Nov-17 13:58N 59°20' E 018°05'0 0.0
2017-Nov-17 13:28N 59°20' E 018°05'0 0.0
2017-Nov-17 13:01N 59°20' E 018°05'0 0.0
2017-Nov-17 12:27N 59°20' E 018°05'0 0.0
2017-Nov-17 12:01N 59°20' E 018°05'0 0.0
2017-Nov-17 11:31N 59°20' E 018°05'0 0.0
2017-Nov-17 11:01N 59°20' E 018°05'0 0.0
2017-Nov-17 10:28N 59°20' E 018°05'0 0.0
2017-Nov-17 10:01N 59°20' E 018°05'0 0.0
2017-Nov-17 09:31N 59°20' E 018°05'0 0.0
2017-Nov-17 08:58N 59°20' E 018°05'0 0.0
2017-Nov-17 08:31N 59°20' E 018°05'0 0.0
2017-Nov-17 07:57N 59°20' E 018°05'0 0.0
2017-Nov-17 07:28N 59°20' E 018°05'0 0.0
2017-Nov-17 07:01N 59°20' E 018°05'3 6.4
2017-Nov-17 06:30N 59°20' E 018°11'510.3
2017-Nov-17 06:00N 59°23' E 018°19'2 4.0
2017-Nov-17 05:29N 59°24' E 018°23'0 0.5
2017-Nov-17 05:00N 59°24' E 018°22'1 1.1
2017-Nov-17 04:29N 59°24' E 018°21'0 0.0
2017-Nov-17 03:59N 59°24' E 018°21'0 0.0
2017-Nov-17 03:29N 59°24' E 018°21'0 0.0
2017-Nov-17 02:56N 59°24' E 018°21'0 0.0
2017-Nov-17 02:26N 59°24' E 018°21'0 0.0
2017-Nov-17 01:56N 59°24' E 018°21'0 0.0
2017-Nov-17 01:29N 59°24' E 018°21'0 0.0
2017-Nov-17 00:56N 59°24' E 018°21'0 0.0
2017-Nov-17 00:29N 59°24' E 018°21'0 0.0
2017-Nov-16 23:44N 59°24' E 018°21'0 0.0
2017-Nov-16 23:26N 59°24' E 018°21'0 0.0
2017-Nov-16 22:56N 59°24' E 018°21'0 0.0
2017-Nov-16 22:26N 59°24' E 018°21'0 0.0
2017-Nov-16 21:56N 59°24' E 018°21'0 0.0
2017-Nov-16 21:26N 59°24' E 018°21'0 0.0
2017-Nov-16 20:56N 59°24' E 018°21'0 0.0
2017-Nov-16 20:26N 59°24' E 018°21'0 0.0
2017-Nov-16 19:56N 59°24' E 018°21'0 0.0
2017-Nov-16 19:14N 59°24' E 018°21'0 0.0
2017-Nov-16 18:56N 59°24' E 018°21'0 0.0
2017-Nov-16 18:29N 59°24' E 018°21'1 3.1
2017-Nov-16 18:00N 59°23' E 018°24'2 3.5
2017-Nov-16 17:31N 59°23' E 018°20'4 7.6
2017-Nov-16 17:01N 59°21' E 018°15'510.6
2017-Nov-16 16:30N 59°20' E 018°04'0 0.1
2017-Nov-16 15:57N 59°20' E 018°05'0 0.0
2017-Nov-16 15:30N 59°20' E 018°05'0 0.0
2017-Nov-16 15:00N 59°20' E 018°05'0 0.0
2017-Nov-16 14:27N 59°20' E 018°05'0 0.0
2017-Nov-16 13:54N 59°20' E 018°05'0 0.0
2017-Nov-16 13:24N 59°20' E 018°05'0 0.0
2017-Nov-16 12:57N 59°20' E 018°05'0 0.0
2017-Nov-16 12:27N 59°20' E 018°05'0 0.0
2017-Nov-16 11:57N 59°20' E 018°05'0 0.0
2017-Nov-16 11:27N 59°20' E 018°05'0 0.0
2017-Nov-16 11:00N 59°20' E 018°05'0 0.0
2017-Nov-16 10:30N 59°20' E 018°05'0 0.0
2017-Nov-16 10:00N 59°20' E 018°05'0 0.0
2017-Nov-16 09:30N 59°20' E 018°05'0 0.9
2017-Nov-16 09:00N 59°19' E 018°05'611.0
2017-Nov-16 08:31N 59°22' E 018°15'4 8.3
2017-Nov-16 08:00N 59°24' E 018°21'3 5.1
2017-Nov-16 07:30N 59°26' E 018°25'510.7
2017-Nov-16 07:01N 59°24' E 018°35'610.7
2017-Nov-16 06:28N 59°23' E 018°46'2 4.8
2017-Nov-16 06:01N 59°23' E 018°51'3 6.5
2017-Nov-16 05:31N 59°25' E 018°55'2 3.1
2017-Nov-16 05:00N 59°27' E 018°55'0 0.1
2017-Nov-16 04:30N 59°27' E 018°55'0 0.0
2017-Nov-16 04:00N 59°27' E 018°55'0 0.0
2017-Nov-16 03:30N 59°27' E 018°55'0 0.0
2017-Nov-16 03:00N 59°27' E 018°55'0 0.0
2017-Nov-16 02:30N 59°27' E 018°55'0 0.0
2017-Nov-16 01:57N 59°27' E 018°55'0 0.0
2017-Nov-16 01:30N 59°27' E 018°55'0 0.0
2017-Nov-16 00:57N 59°27' E 018°55'0 0.0
2017-Nov-16 00:30N 59°27' E 018°55'0 0.0
2017-Nov-16 00:00N 59°27' E 018°55'0 0.0
2017-Nov-15 23:30N 59°27' E 018°55'0 0.0
2017-Nov-15 23:00N 59°27' E 018°55'0 0.0
2017-Nov-15 22:28N 59°27' E 018°55'0 0.0
2017-Nov-15 21:30N 59°27' E 018°55'0 0.0
2017-Nov-15 20:30N 59°27' E 018°55'0 0.0
2017-Nov-15 20:00N 59°27' E 018°55'0 0.0
2017-Nov-15 19:30N 59°27' E 018°55'0 0.0
2017-Nov-15 19:00N 59°27' E 018°55'0 0.0
2017-Nov-15 18:30N 59°27' E 018°55'0 0.0
2017-Nov-15 18:00N 59°27' E 018°55'1 2.5
2017-Nov-15 17:30N 59°25' E 018°55'7 9.8
2017-Nov-15 16:49N 59°23' E 018°43'1 4.3
2017-Nov-15 16:30N 59°24' E 018°43'4 5.6
2017-Nov-15 15:51N 59°22' E 018°36'0 0.0
2017-Nov-15 15:27N 59°22' E 018°36'0 0.0
2017-Nov-15 14:57N 59°22' E 018°36'4 7.2
2017-Nov-15 14:26N 59°23' E 018°43'3 3.3
2017-Nov-15 13:41N 59°23' E 018°48'0 0.1
2017-Nov-15 10:40N 59°23' E 018°49'1 3.4
2017-Nov-15 10:17N 59°23' E 018°46'2 4.3
2017-Nov-15 09:49N 59°23' E 018°42'2 6.9
2017-Nov-15 09:30N 59°23' E 018°38'1 0.4
2017-Nov-15 07:02N 59°22' E 018°36'0 0.0
2017-Nov-15 06:50N 59°22' E 018°36'3 9.6
2017-Nov-15 06:30N 59°25' E 018°38'2 4.5
2017-Nov-15 06:00N 59°26' E 018°42'5 9.6
2017-Nov-15 05:31N 59°29' E 018°50'1 0.3
2017-Nov-15 01:42N 59°30' E 018°51'0 0.0
2017-Nov-15 00:18N 59°30' E 018°51'0 0.0
2017-Nov-15 00:00N 59°30' E 018°51'0 0.0
2017-Nov-14 17:39N 59°30' E 018°51'0 2.6
2017-Nov-14 17:30N 59°30' E 018°50'610.1
2017-Nov-14 16:57N 59°26' E 018°42'3 6.7
2017-Nov-14 16:29N 59°24' E 018°37'2 3.2
2017-Nov-14 16:00N 59°24' E 018°34'3 6.4
2017-Nov-14 15:30N 59°25' E 018°28'4 7.9
2017-Nov-14 15:00N 59°24' E 018°21'4 8.8
2017-Nov-14 14:30N 59°21' E 018°15'510.6
2017-Nov-14 14:00N 59°20' E 018°04'0 0.1
2017-Nov-14 13:28N 59°20' E 018°04'0 0.0
2017-Nov-14 12:58N 59°20' E 018°04'0 0.0
2017-Nov-14 12:28N 59°20' E 018°04'0 0.0
2017-Nov-14 11:58N 59°20' E 018°04'0 0.0
2017-Nov-14 11:28N 59°20' E 018°04'0 0.0
2017-Nov-14 10:58N 59°20' E 018°04'0 0.0
2017-Nov-14 10:28N 59°20' E 018°04'0 0.0
2017-Nov-14 09:58N 59°20' E 018°04'0 0.0
2017-Nov-14 09:28N 59°20' E 018°04'0 0.0
2017-Nov-14 08:58N 59°20' E 018°04'0 0.0
2017-Nov-14 08:28N 59°20' E 018°04'0 0.0
2017-Nov-14 07:55N 59°20' E 018°04'0 0.0
2017-Nov-14 07:28N 59°20' E 018°04'0 0.0
2017-Nov-14 06:59N 59°20' E 018°04'0 0.0
2017-Nov-14 06:29N 59°20' E 018°04'0 0.0
2017-Nov-14 05:59N 59°20' E 018°04'0 0.0
2017-Nov-14 05:29N 59°20' E 018°04'0 0.0
2017-Nov-14 04:59N 59°20' E 018°04'0 0.0
2017-Nov-14 04:29N 59°20' E 018°04'0 0.0
2017-Nov-14 03:57N 59°20' E 018°04'0 0.0
2017-Nov-14 03:29N 59°20' E 018°04'0 0.0
2017-Nov-14 02:59N 59°20' E 018°04'0 0.0
2017-Nov-14 02:29N 59°20' E 018°04'0 0.0
2017-Nov-14 01:59N 59°20' E 018°04'0 0.0
2017-Nov-14 01:29N 59°20' E 018°04'0 0.0
2017-Nov-14 00:59N 59°20' E 018°04'0 0.0
2017-Nov-14 00:29N 59°20' E 018°04'0 0.0
2017-Nov-13 23:59N 59°20' E 018°04'0 0.0
2017-Nov-13 23:29N 59°20' E 018°04'0 0.0
2017-Nov-13 22:59N 59°20' E 018°04'0 0.0
2017-Nov-13 22:29N 59°20' E 018°04'0 0.0
2017-Nov-13 21:59N 59°20' E 018°04'27 1.3
2017-Nov-13 01:55N 59°27' E 018°55'0 0.0
2017-Nov-13 01:28N 59°27' E 018°55'0 0.0
2017-Nov-13 00:58N 59°27' E 018°55'0 0.0
2017-Nov-13 00:28N 59°27' E 018°55'0 0.0
2017-Nov-12 23:58N 59°27' E 018°55'0 0.0
2017-Nov-12 23:28N 59°27' E 018°55'0 0.0
2017-Nov-12 22:52N 59°27' E 018°55'0 0.0
2017-Nov-12 22:25N 59°27' E 018°55'0 0.0
2017-Nov-12 21:52N 59°27' E 018°55'0 0.0
2017-Nov-12 21:28N 59°27' E 018°55'0 0.0
2017-Nov-12 20:55N 59°27' E 018°55'0 0.0
2017-Nov-12 20:25N 59°27' E 018°55'0 0.8
2017-Nov-12 20:00N 59°26' E 018°56'4 8.9
2017-Nov-12 19:31N 59°23' E 018°51'5 9.0
2017-Nov-12 19:00N 59°23' E 018°42'710.3
2017-Nov-12 18:21N 59°25' E 018°29'411.4
2017-Nov-12 18:01N 59°25' E 018°22'510.4
2017-Nov-12 17:30N 59°21' E 018°14'510.4
2017-Nov-12 17:00N 59°20' E 018°04'0 0.1
2017-Nov-12 16:29N 59°20' E 018°04'0 0.4
2017-Nov-12 16:00N 59°20' E 018°05'5 9.7
2017-Nov-12 15:30N 59°21' E 018°14'4 9.0
2017-Nov-12 15:00N 59°23' E 018°22'3 5.6
2017-Nov-12 14:30N 59°25' E 018°22'3 6.8
2017-Nov-12 14:01N 59°28' E 018°25'3 5.3
2017-Nov-12 13:30N 59°29' E 018°30'1 0.3
2017-Nov-12 10:18N 59°30' E 018°32'2 7.4
2017-Nov-12 10:00N 59°28' E 018°29'3 6.6
2017-Nov-12 09:30N 59°27' E 018°23'4 8.4
2017-Nov-12 09:01N 59°23' E 018°21'4 7.3
2017-Nov-12 08:30N 59°21' E 018°14'510.6
2017-Nov-12 08:01N 59°20' E 018°04'0 0.1
2017-Nov-12 07:29N 59°20' E 018°05'0 0.0
2017-Nov-12 06:59N 59°20' E 018°05'0 0.0
2017-Nov-12 06:29N 59°20' E 018°05'0 0.0
2017-Nov-12 05:59N 59°20' E 018°05'0 0.0
2017-Nov-12 05:29N 59°20' E 018°05'0 0.0
2017-Nov-12 04:59N 59°20' E 018°05'0 0.0
2017-Nov-12 04:29N 59°20' E 018°05'0 0.0
2017-Nov-12 03:59N 59°20' E 018°05'0 0.0
2017-Nov-12 03:29N 59°20' E 018°05'0 0.0
2017-Nov-12 02:59N 59°20' E 018°05'0 0.0
2017-Nov-12 02:29N 59°20' E 018°05'0 0.0
2017-Nov-12 01:59N 59°20' E 018°05'0 0.0
2017-Nov-12 01:29N 59°20' E 018°05'0 0.0
2017-Nov-12 00:59N 59°20' E 018°05'0 0.0
2017-Nov-12 00:29N 59°20' E 018°05'0 0.0
2017-Nov-11 23:59N 59°20' E 018°05'0 0.0
2017-Nov-11 23:29N 59°20' E 018°05'0 0.0
2017-Nov-11 22:59N 59°20' E 018°05'0 0.0
2017-Nov-11 22:29N 59°20' E 018°05'0 0.0
2017-Nov-11 21:59N 59°20' E 018°05'0 0.0
2017-Nov-11 21:29N 59°20' E 018°05'0 0.0
2017-Nov-11 20:59N 59°20' E 018°05'0 0.0
2017-Nov-11 20:29N 59°20' E 018°05'0 0.0
2017-Nov-11 19:59N 59°20' E 018°05'0 0.0
2017-Nov-11 19:29N 59°20' E 018°05'0 0.0
2017-Nov-11 18:59N 59°20' E 018°05'0 0.0
2017-Nov-11 18:29N 59°20' E 018°05'1 1.3
2017-Nov-11 18:00N 59°19' E 018°05'510.4
2017-Nov-11 17:30N 59°21' E 018°15'4 8.7
2017-Nov-11 17:01N 59°24' E 018°21'4 8.1
2017-Nov-11 16:30N 59°27' E 018°27'2 4.8
2017-Nov-11 16:01N 59°28' E 018°31'4 7.7
2017-Nov-11 15:31N 59°27' E 018°23'3 6.3
2017-Nov-11 14:59N 59°24' E 018°21'0 0.0
2017-Nov-11 14:29N 59°24' E 018°21'4 7.3
2017-Nov-11 14:00N 59°26' E 018°28'611.1
2017-Nov-11 13:30N 59°22' E 018°36'4 5.4
2017-Nov-11 12:45N 59°23' E 018°44'2 5.7
2017-Nov-11 12:26N 59°24' E 018°47'3 6.6
2017-Nov-11 11:58N 59°24' E 018°53'3 5.7
2017-Nov-11 11:29N 59°27' E 018°55'0 0.0
2017-Nov-11 10:59N 59°27' E 018°55'3 5.1
2017-Nov-11 10:27N 59°24' E 018°53'3 5.5
2017-Nov-11 09:59N 59°23' E 018°49'1 2.5
2017-Nov-11 09:27N 59°23' E 018°46'3 5.4
2017-Nov-11 08:56N 59°23' E 018°41'4 8.5
2017-Nov-11 08:30N 59°23' E 018°33'612.0
2017-Nov-11 08:00N 59°25' E 018°22'510.5
2017-Nov-11 07:31N 59°21' E 018°15'510.6
2017-Nov-11 07:00N 59°20' E 018°04'0 0.1
2017-Nov-11 06:30N 59°20' E 018°04'0 0.0
2017-Nov-11 06:00N 59°20' E 018°04'0 0.0
2017-Nov-11 05:30N 59°20' E 018°04'0 0.0
2017-Nov-11 05:00N 59°20' E 018°04'0 0.0
2017-Nov-11 04:30N 59°20' E 018°04'0 0.0
2017-Nov-11 04:00N 59°20' E 018°04'0 0.0
2017-Nov-11 03:30N 59°20' E 018°04'0 0.0
2017-Nov-11 03:00N 59°20' E 018°04'0 0.0
2017-Nov-11 02:30N 59°20' E 018°04'0 0.0
2017-Nov-11 02:00N 59°20' E 018°04'0 0.0
2017-Nov-11 01:30N 59°20' E 018°04'0 0.0
2017-Nov-11 01:00N 59°20' E 018°04'0 0.0
2017-Nov-11 00:30N 59°20' E 018°04'0 0.0
2017-Nov-11 00:00N 59°20' E 018°04'0 0.0
2017-Nov-10 23:30N 59°20' E 018°04'0 0.0
2017-Nov-10 23:00N 59°20' E 018°04'0 0.0
2017-Nov-10 22:30N 59°20' E 018°04'0 0.0
2017-Nov-10 22:00N 59°20' E 018°04'0 0.0
2017-Nov-10 21:30N 59°20' E 018°04'0 0.0
2017-Nov-10 21:00N 59°20' E 018°04'0 0.0
2017-Nov-10 20:27N 59°20' E 018°04'0 0.0
2017-Nov-10 20:00N 59°20' E 018°04'0 0.0
2017-Nov-10 19:30N 59°20' E 018°04'0 0.0
2017-Nov-10 19:00N 59°20' E 018°04'0 0.0
2017-Nov-10 18:30N 59°20' E 018°04'0 0.0
2017-Nov-10 17:57N 59°20' E 018°04'0 0.0
2017-Nov-10 17:30N 59°20' E 018°04'0 0.0
2017-Nov-10 17:00N 59°20' E 018°04'0 0.0
2017-Nov-10 16:30N 59°20' E 018°04'0 0.0
2017-Nov-10 16:00N 59°20' E 018°04'0 0.0
2017-Nov-10 15:30N 59°20' E 018°04'0 0.0
2017-Nov-10 15:00N 59°20' E 018°04'0 0.0
2017-Nov-10 14:30N 59°20' E 018°04'0 0.0
2017-Nov-10 14:00N 59°20' E 018°04'0 0.0
2017-Nov-10 13:30N 59°20' E 018°04'0 0.0
2017-Nov-10 13:00N 59°20' E 018°04'0 0.0
2017-Nov-10 12:30N 59°20' E 018°04'0 0.0
2017-Nov-10 12:00N 59°20' E 018°04'0 0.0
2017-Nov-10 11:30N 59°20' E 018°04'0 0.0
2017-Nov-10 11:00N 59°20' E 018°04'0 0.0
2017-Nov-10 10:30N 59°20' E 018°04'0 0.0
2017-Nov-10 10:00N 59°20' E 018°04'0 0.0
2017-Nov-10 09:30N 59°20' E 018°04'0 0.0
2017-Nov-10 09:00N 59°20' E 018°04'0 0.0
2017-Nov-10 08:30N 59°20' E 018°04'0 0.0
2017-Nov-10 08:00N 59°20' E 018°04'0 0.0
2017-Nov-10 07:30N 59°20' E 018°04'0 0.0
2017-Nov-10 07:00N 59°20' E 018°04'4 8.1
2017-Nov-10 06:31N 59°20' E 018°12'5 9.2
2017-Nov-10 06:01N 59°23' E 018°20'2 3.3
2017-Nov-10 05:30N 59°24' E 018°23'0 0.5
2017-Nov-10 05:00N 59°24' E 018°22'1 1.2
2017-Nov-10 04:30N 59°24' E 018°21'0 0.0
2017-Nov-10 04:00N 59°24' E 018°21'0 0.0
2017-Nov-10 03:30N 59°24' E 018°21'0 0.0
2017-Nov-10 03:00N 59°24' E 018°21'0 0.0
2017-Nov-10 02:30N 59°24' E 018°21'0 0.0
2017-Nov-10 02:00N 59°24' E 018°21'0 0.0
2017-Nov-10 01:30N 59°24' E 018°21'0 0.0
2017-Nov-10 00:57N 59°24' E 018°21'  
Track history (hours):
 
Tides and Currents Weather Stations Pressure Air Temp Water Temp Dewpoint Dewpoint Depression Visibility Wind Speed Wind Dir Waves Ship Positions

Varmdo

Last reported at 2017-Nov-20 00:30 UTC. Time now 2017-Nov-21 21:12 UTC.
Position N 59°27' E 018°55'.

Length 38 m; draft 2.5 m.

Type: Passenger vessel. MMSI: 265520390.

Date/timePositionNaut miles runAvg speedWind from/ knotsBaromVisibWave heightAir tempDewpointWater temp
2017-Nov-20 00:30N 59°27' E 018°55'0 0.0
2017-Nov-20 00:00N 59°27' E 018°55'0 0.0
2017-Nov-19 23:30N 59°27' E 018°55'0 0.0
2017-Nov-19 23:00N 59°27' E 018°55'0 0.0
2017-Nov-19 22:27N 59°27' E 018°55'0 0.0
2017-Nov-19 22:00N 59°27' E 018°55'0 0.0
2017-Nov-19 21:30N 59°27' E 018°55'0 0.0
2017-Nov-19 20:51N 59°27' E 018°55'0 0.0
2017-Nov-19 20:15N 59°27' E 018°55'2 7.5
2017-Nov-19 20:00N 59°25' E 018°54'3 6.6
2017-Nov-19 19:30N 59°23' E 018°49'4 6.9
2017-Nov-19 18:59N 59°23' E 018°42'711.3
2017-Nov-19 18:23N 59°25' E 018°30'410.4
2017-Nov-19 18:00N 59°25' E 018°22'510.3
2017-Nov-19 17:30N 59°21' E 018°14'510.5
2017-Nov-19 17:01N 59°20' E 018°04'0 0.1
2017-Nov-19 16:28N 59°20' E 018°04'0 0.0
2017-Nov-19 16:00N 59°20' E 018°04'4 7.5
2017-Nov-19 15:31N 59°20' E 018°12'611.1
2017-Nov-19 15:00N 59°22' E 018°22'3 6.0
2017-Nov-19 14:29N 59°25' E 018°22'4 7.8
2017-Nov-19 14:00N 59°28' E 018°26'2 4.8
2017-Nov-19 13:30N 59°30' E 018°30'1 0.3
2017-Nov-19 10:08N 59°30' E 018°32'211.9
2017-Nov-19 10:01N 59°29' E 018°30'4 7.2
2017-Nov-19 09:30N 59°27' E 018°24'4 8.1
2017-Nov-19 08:59N 59°23' E 018°20'4 7.6
2017-Nov-19 08:30N 59°21' E 018°14'510.6
2017-Nov-19 08:01N 59°20' E 018°05'0 0.1
2017-Nov-19 07:28N 59°20' E 018°05'0 0.0
2017-Nov-19 06:58N 59°20' E 018°05'0 0.0
2017-Nov-19 06:28N 59°20' E 018°05'0 0.0
2017-Nov-19 05:58N 59°20' E 018°05'0 0.0
2017-Nov-19 05:28N 59°20' E 018°05'0 0.0
2017-Nov-19 04:58N 59°20' E 018°05'0 0.0
2017-Nov-19 04:28N 59°20' E 018°05'0 0.0
2017-Nov-19 03:58N 59°20' E 018°05'0 0.0
2017-Nov-19 03:28N 59°20' E 018°05'0 0.0
2017-Nov-19 02:58N 59°20' E 018°05'0 0.0
2017-Nov-19 02:28N 59°20' E 018°05'0 0.0
2017-Nov-19 01:58N 59°20' E 018°05'0 0.0
2017-Nov-19 01:28N 59°20' E 018°05'0 0.0
2017-Nov-19 00:58N 59°20' E 018°05'0 0.0
2017-Nov-19 00:28N 59°20' E 018°05'0 0.0
2017-Nov-18 23:58N 59°20' E 018°05'0 0.0
2017-Nov-18 23:28N 59°20' E 018°05'0 0.0
2017-Nov-18 22:55N 59°20' E 018°05'0 0.0
2017-Nov-18 22:28N 59°20' E 018°05'0 0.0
2017-Nov-18 21:58N 59°20' E 018°05'0 0.0
2017-Nov-18 21:28N 59°20' E 018°05'0 0.0
2017-Nov-18 20:58N 59°20' E 018°05'0 0.0
2017-Nov-18 20:28N 59°20' E 018°05'0 0.0
2017-Nov-18 19:58N 59°20' E 018°05'0 0.0
2017-Nov-18 19:28N 59°20' E 018°05'0 0.0
2017-Nov-18 18:58N 59°20' E 018°05'0 0.0
2017-Nov-18 18:28N 59°20' E 018°05'1 1.3
2017-Nov-18 18:00N 59°19' E 018°05'510.1
2017-Nov-18 17:30N 59°21' E 018°14'4 8.9
2017-Nov-18 17:00N 59°24' E 018°21'4 7.4
2017-Nov-18 16:30N 59°27' E 018°27'3 5.0
2017-Nov-18 16:00N 59°28' E 018°30'3 7.0
2017-Nov-18 15:30N 59°27' E 018°24'3 6.5
2017-Nov-18 15:00N 59°24' E 018°21'0 0.0
2017-Nov-18 14:30N 59°24' E 018°21'4 7.6
2017-Nov-18 14:00N 59°25' E 018°28'510.8
2017-Nov-18 13:31N 59°22' E 018°36'3 5.0
2017-Nov-18 12:54N 59°23' E 018°42'3 6.2
2017-Nov-18 12:26N 59°23' E 018°48'5 6.5
2017-Nov-18 11:37N 59°27' E 018°56'0 1.5
2017-Nov-18 11:30N 59°27' E 018°55'0 0.0
2017-Nov-18 10:57N 59°27' E 018°55'5 4.6
2017-Nov-18 09:53N 59°23' E 018°49'2 4.5
2017-Nov-18 09:23N 59°23' E 018°44'2 4.4
2017-Nov-18 08:55N 59°23' E 018°40'4 8.9
2017-Nov-18 08:30N 59°24' E 018°33'611.8
2017-Nov-18 08:01N 59°25' E 018°22'5 9.7
2017-Nov-18 07:31N 59°22' E 018°15'611.2
2017-Nov-18 07:01N 59°20' E 018°04'0 0.1
2017-Nov-18 06:30N 59°20' E 018°05'0 0.0
2017-Nov-18 05:57N 59°20' E 018°05'0 0.0
2017-Nov-18 05:28N 59°20' E 018°05'0 0.0
2017-Nov-18 05:01N 59°20' E 018°05'0 0.0
2017-Nov-18 04:31N 59°20' E 018°05'0 0.0
2017-Nov-18 03:58N 59°20' E 018°05'0 0.0
2017-Nov-18 03:31N 59°20' E 018°05'0 0.0
2017-Nov-18 02:58N 59°20' E 018°05'0 0.0
2017-Nov-18 02:28N 59°20' E 018°05'0 0.0
2017-Nov-18 02:00N 59°20' E 018°05'0 0.0
2017-Nov-18 01:28N 59°20' E 018°05'0 0.0
2017-Nov-18 01:01N 59°20' E 018°05'0 0.0
2017-Nov-18 00:28N 59°20' E 018°05'0 0.0
2017-Nov-18 00:01N 59°20' E 018°05'0 0.0
2017-Nov-17 23:28N 59°20' E 018°05'0 0.0
2017-Nov-17 23:01N 59°20' E 018°05'0 0.0
2017-Nov-17 22:31N 59°20' E 018°05'0 0.0
2017-Nov-17 22:01N 59°20' E 018°05'0 0.0
2017-Nov-17 21:28N 59°20' E 018°05'0 0.0
2017-Nov-17 20:58N 59°20' E 018°05'0 0.0
2017-Nov-17 20:31N 59°20' E 018°05'0 0.0
2017-Nov-17 19:58N 59°20' E 018°05'0 0.0
2017-Nov-17 19:28N 59°20' E 018°05'0 0.0
2017-Nov-17 18:58N 59°20' E 018°05'0 0.0
2017-Nov-17 18:30N 59°20' E 018°05'0 0.0
2017-Nov-17 17:58N 59°20' E 018°05'0 0.0
2017-Nov-17 17:31N 59°20' E 018°05'0 0.0
2017-Nov-17 16:58N 59°20' E 018°05'0 0.0
2017-Nov-17 16:30N 59°20' E 018°05'0 0.0
2017-Nov-17 16:00N 59°20' E 018°05'0 0.0
2017-Nov-17 15:31N 59°20' E 018°05'0 0.0
2017-Nov-17 15:01N 59°20' E 018°05'0 0.0
2017-Nov-17 14:31N 59°20' E 018°05'0 0.0
2017-Nov-17 13:58N 59°20' E 018°05'0 0.0
2017-Nov-17 13:28N 59°20' E 018°05'0 0.0
2017-Nov-17 13:01N 59°20' E 018°05'0 0.0
2017-Nov-17 12:27N 59°20' E 018°05'0 0.0
2017-Nov-17 12:01N 59°20' E 018°05'0 0.0
2017-Nov-17 11:31N 59°20' E 018°05'0 0.0
2017-Nov-17 11:01N 59°20' E 018°05'0 0.0
2017-Nov-17 10:28N 59°20' E 018°05'0 0.0
2017-Nov-17 10:01N 59°20' E 018°05'0 0.0
2017-Nov-17 09:31N 59°20' E 018°05'0 0.0
2017-Nov-17 08:58N 59°20' E 018°05'0 0.0
2017-Nov-17 08:31N 59°20' E 018°05'0 0.0
2017-Nov-17 07:57N 59°20' E 018°05'0 0.0
2017-Nov-17 07:28N 59°20' E 018°05'0 0.0
2017-Nov-17 07:01N 59°20' E 018°05'3 6.4
2017-Nov-17 06:30N 59°20' E 018°11'510.3
2017-Nov-17 06:00N 59°23' E 018°19'2 4.0
2017-Nov-17 05:29N 59°24' E 018°23'0 0.5
2017-Nov-17 05:00N 59°24' E 018°22'1 1.1
2017-Nov-17 04:29N 59°24' E 018°21'0 0.0
2017-Nov-17 03:59N 59°24' E 018°21'0 0.0
2017-Nov-17 03:29N 59°24' E 018°21'0 0.0
2017-Nov-17 02:56N 59°24' E 018°21'0 0.0
2017-Nov-17 02:26N 59°24' E 018°21'0 0.0
2017-Nov-17 01:56N 59°24' E 018°21'0 0.0
2017-Nov-17 01:29N 59°24' E 018°21'0 0.0
2017-Nov-17 00:56N 59°24' E 018°21'0 0.0
2017-Nov-17 00:29N 59°24' E 018°21'0 0.0
2017-Nov-16 23:44N 59°24' E 018°21'0 0.0
2017-Nov-16 23:26N 59°24' E 018°21'0 0.0
2017-Nov-16 22:56N 59°24' E 018°21'0 0.0
2017-Nov-16 22:26N 59°24' E 018°21'0 0.0
2017-Nov-16 21:56N 59°24' E 018°21'0 0.0
2017-Nov-16 21:26N 59°24' E 018°21'0 0.0
2017-Nov-16 20:56N 59°24' E 018°21'0 0.0
2017-Nov-16 20:26N 59°24' E 018°21'0 0.0
2017-Nov-16 19:56N 59°24' E 018°21'0 0.0
2017-Nov-16 19:14N 59°24' E 018°21'0 0.0
2017-Nov-16 18:56N 59°24' E 018°21'0 0.0
2017-Nov-16 18:29N 59°24' E 018°21'1 3.1
2017-Nov-16 18:00N 59°23' E 018°24'2 3.5
2017-Nov-16 17:31N 59°23' E 018°20'4 7.6
2017-Nov-16 17:01N 59°21' E 018°15'510.6
2017-Nov-16 16:30N 59°20' E 018°04'0 0.1
2017-Nov-16 15:57N 59°20' E 018°05'0 0.0
2017-Nov-16 15:30N 59°20' E 018°05'0 0.0
2017-Nov-16 15:00N 59°20' E 018°05'0 0.0
2017-Nov-16 14:27N 59°20' E 018°05'0 0.0
2017-Nov-16 13:54N 59°20' E 018°05'0 0.0
2017-Nov-16 13:24N 59°20' E 018°05'0 0.0
2017-Nov-16 12:57N 59°20' E 018°05'0 0.0
2017-Nov-16 12:27N 59°20' E 018°05'0 0.0
2017-Nov-16 11:57N 59°20' E 018°05'0 0.0
2017-Nov-16 11:27N 59°20' E 018°05'0 0.0
2017-Nov-16 11:00N 59°20' E 018°05'0 0.0
2017-Nov-16 10:30N 59°20' E 018°05'0 0.0
2017-Nov-16 10:00N 59°20' E 018°05'0 0.0
2017-Nov-16 09:30N 59°20' E 018°05'0 0.9
2017-Nov-16 09:00N 59°19' E 018°05'611.0
2017-Nov-16 08:31N 59°22' E 018°15'4 8.3
2017-Nov-16 08:00N 59°24' E 018°21'3 5.1
2017-Nov-16 07:30N 59°26' E 018°25'510.7
2017-Nov-16 07:01N 59°24' E 018°35'610.7
2017-Nov-16 06:28N 59°23' E 018°46'2 4.8
2017-Nov-16 06:01N 59°23' E 018°51'3 6.5
2017-Nov-16 05:31N 59°25' E 018°55'2 3.1
2017-Nov-16 05:00N 59°27' E 018°55'0 0.1
2017-Nov-16 04:30N 59°27' E 018°55'0 0.0
2017-Nov-16 04:00N 59°27' E 018°55'0 0.0
2017-Nov-16 03:30N 59°27' E 018°55'0 0.0
2017-Nov-16 03:00N 59°27' E 018°55'0 0.0
2017-Nov-16 02:30N 59°27' E 018°55'0 0.0
2017-Nov-16 01:57N 59°27' E 018°55'0 0.0
2017-Nov-16 01:30N 59°27' E 018°55'0 0.0
2017-Nov-16 00:57N 59°27' E 018°55'0 0.0
2017-Nov-16 00:30N 59°27' E 018°55'0 0.0
2017-Nov-16 00:00N 59°27' E 018°55'0 0.0
2017-Nov-15 23:30N 59°27' E 018°55'0 0.0
2017-Nov-15 23:00N 59°27' E 018°55'0 0.0
2017-Nov-15 22:28N 59°27' E 018°55'0 0.0
2017-Nov-15 21:30N 59°27' E 018°55'0 0.0
2017-Nov-15 20:30N 59°27' E 018°55'0 0.0
2017-Nov-15 20:00N 59°27' E 018°55'0 0.0
2017-Nov-15 19:30N 59°27' E 018°55'0 0.0
2017-Nov-15 19:00N 59°27' E 018°55'0 0.0
2017-Nov-15 18:30N 59°27' E 018°55'0 0.0
2017-Nov-15 18:00N 59°27' E 018°55'1 2.5
2017-Nov-15 17:30N 59°25' E 018°55'7 9.8
2017-Nov-15 16:49N 59°23' E 018°43'1 4.3
2017-Nov-15 16:30N 59°24' E 018°43'4 5.6
2017-Nov-15 15:51N 59°22' E 018°36'0 0.0
2017-Nov-15 15:27N 59°22' E 018°36'0 0.0
2017-Nov-15 14:57N 59°22' E 018°36'4 7.2
2017-Nov-15 14:26N 59°23' E 018°43'3 3.3
2017-Nov-15 13:41N 59°23' E 018°48'0 0.1
2017-Nov-15 10:40N 59°23' E 018°49'1 3.4
2017-Nov-15 10:17N 59°23' E 018°46'2 4.3
2017-Nov-15 09:49N 59°23' E 018°42'2 6.9
2017-Nov-15 09:30N 59°23' E 018°38'1 0.4
2017-Nov-15 07:02N 59°22' E 018°36'0 0.0
2017-Nov-15 06:50N 59°22' E 018°36'3 9.6
2017-Nov-15 06:30N 59°25' E 018°38'2 4.5
2017-Nov-15 06:00N 59°26' E 018°42'5 9.6
2017-Nov-15 05:31N 59°29' E 018°50'1 0.3
2017-Nov-15 01:42N 59°30' E 018°51'0 0.0
2017-Nov-15 00:18N 59°30' E 018°51'0 0.0
2017-Nov-15 00:00N 59°30' E 018°51'0 0.0
2017-Nov-14 17:39N 59°30' E 018°51'0 2.6
2017-Nov-14 17:30N 59°30' E 018°50'610.1
2017-Nov-14 16:57N 59°26' E 018°42'3 6.7
2017-Nov-14 16:29N 59°24' E 018°37'2 3.2
2017-Nov-14 16:00N 59°24' E 018°34'3 6.4
2017-Nov-14 15:30N 59°25' E 018°28'4 7.9
2017-Nov-14 15:00N 59°24' E 018°21'4 8.8
2017-Nov-14 14:30N 59°21' E 018°15'510.6
2017-Nov-14 14:00N 59°20' E 018°04'0 0.1
2017-Nov-14 13:28N 59°20' E 018°04'0 0.0
2017-Nov-14 12:58N 59°20' E 018°04'0 0.0
2017-Nov-14 12:28N 59°20' E 018°04'0 0.0
2017-Nov-14 11:58N 59°20' E 018°04'0 0.0
2017-Nov-14 11:28N 59°20' E 018°04'0 0.0
2017-Nov-14 10:58N 59°20' E 018°04'0 0.0
2017-Nov-14 10:28N 59°20' E 018°04'0 0.0
2017-Nov-14 09:58N 59°20' E 018°04'0 0.0
2017-Nov-14 09:28N 59°20' E 018°04'0 0.0
2017-Nov-14 08:58N 59°20' E 018°04'0 0.0
2017-Nov-14 08:28N 59°20' E 018°04'0 0.0
2017-Nov-14 07:55N 59°20' E 018°04'0 0.0
2017-Nov-14 07:28N 59°20' E 018°04'0 0.0
2017-Nov-14 06:59N 59°20' E 018°04'0 0.0
2017-Nov-14 06:29N 59°20' E 018°04'0 0.0
2017-Nov-14 05:59N 59°20' E 018°04'0 0.0
2017-Nov-14 05:29N 59°20' E 018°04'0 0.0
2017-Nov-14 04:59N 59°20' E 018°04'0 0.0
2017-Nov-14 04:29N 59°20' E 018°04'0 0.0
2017-Nov-14 03:57N 59°20' E 018°04'0 0.0
2017-Nov-14 03:29N 59°20' E 018°04'0 0.0
2017-Nov-14 02:59N 59°20' E 018°04'0 0.0
2017-Nov-14 02:29N 59°20' E 018°04'0 0.0
2017-Nov-14 01:59N 59°20' E 018°04'0 0.0
2017-Nov-14 01:29N 59°20' E 018°04'0 0.0
2017-Nov-14 00:59N 59°20' E 018°04'0 0.0
2017-Nov-14 00:29N 59°20' E 018°04'0 0.0
2017-Nov-13 23:59N 59°20' E 018°04'0 0.0
2017-Nov-13 23:29N 59°20' E 018°04'0 0.0
2017-Nov-13 22:59N 59°20' E 018°04'0 0.0
2017-Nov-13 22:29N 59°20' E 018°04'0 0.0
2017-Nov-13 21:59N 59°20' E 018°04'27 1.3
2017-Nov-13 01:55N 59°27' E 018°55'0 0.0
2017-Nov-13 01:28N 59°27' E 018°55'0 0.0
2017-Nov-13 00:58N 59°27' E 018°55'0 0.0
2017-Nov-13 00:28N 59°27' E 018°55'0 0.0
2017-Nov-12 23:58N 59°27' E 018°55'0 0.0
2017-Nov-12 23:28N 59°27' E 018°55'0 0.0
2017-Nov-12 22:52N 59°27' E 018°55'0 0.0
2017-Nov-12 22:25N 59°27' E 018°55'0 0.0
2017-Nov-12 21:52N 59°27' E 018°55'0 0.0
2017-Nov-12 21:28N 59°27' E 018°55'0 0.0
2017-Nov-12 20:55N 59°27' E 018°55'0 0.0
2017-Nov-12 20:25N 59°27' E 018°55'0 0.8
2017-Nov-12 20:00N 59°26' E 018°56'4 8.9
2017-Nov-12 19:31N 59°23' E 018°51'5 9.0
2017-Nov-12 19:00N 59°23' E 018°42'710.3
2017-Nov-12 18:21N 59°25' E 018°29'411.4
2017-Nov-12 18:01N 59°25' E 018°22'510.4
2017-Nov-12 17:30N 59°21' E 018°14'510.4
2017-Nov-12 17:00N 59°20' E 018°04'0 0.1
2017-Nov-12 16:29N 59°20' E 018°04'0 0.4
2017-Nov-12 16:00N 59°20' E 018°05'5 9.7
2017-Nov-12 15:30N 59°21' E 018°14'4 9.0
2017-Nov-12 15:00N 59°23' E 018°22'3 5.6
2017-Nov-12 14:30N 59°25' E 018°22'3 6.8
2017-Nov-12 14:01N 59°28' E 018°25'3 5.3
2017-Nov-12 13:30N 59°29' E 018°30'1 0.3
2017-Nov-12 10:18N 59°30' E 018°32'2 7.4
2017-Nov-12 10:00N 59°28' E 018°29'3 6.6
2017-Nov-12 09:30N 59°27' E 018°23'4 8.4
2017-Nov-12 09:01N 59°23' E 018°21'4 7.3
2017-Nov-12 08:30N 59°21' E 018°14'510.6
2017-Nov-12 08:01N 59°20' E 018°04'0 0.1
2017-Nov-12 07:29N 59°20' E 018°05'0 0.0
2017-Nov-12 06:59N 59°20' E 018°05'0 0.0
2017-Nov-12 06:29N 59°20' E 018°05'0 0.0
2017-Nov-12 05:59N 59°20' E 018°05'0 0.0
2017-Nov-12 05:29N 59°20' E 018°05'0 0.0
2017-Nov-12 04:59N 59°20' E 018°05'0 0.0
2017-Nov-12 04:29N 59°20' E 018°05'0 0.0
2017-Nov-12 03:59N 59°20' E 018°05'0 0.0
2017-Nov-12 03:29N 59°20' E 018°05'0 0.0
2017-Nov-12 02:59N 59°20' E 018°05'0 0.0
2017-Nov-12 02:29N 59°20' E 018°05'0 0.0
2017-Nov-12 01:59N 59°20' E 018°05'0 0.0
2017-Nov-12 01:29N 59°20' E 018°05'0 0.0
2017-Nov-12 00:59N 59°20' E 018°05'0 0.0
2017-Nov-12 00:29N 59°20' E 018°05'0 0.0
2017-Nov-11 23:59N 59°20' E 018°05'0 0.0
2017-Nov-11 23:29N 59°20' E 018°05'0 0.0
2017-Nov-11 22:59N 59°20' E 018°05'0 0.0
2017-Nov-11 22:29N 59°20' E 018°05'0 0.0
2017-Nov-11 21:59N 59°20' E 018°05'0 0.0
2017-Nov-11 21:29N 59°20' E 018°05'0 0.0
2017-Nov-11 20:59N 59°20' E 018°05'0 0.0
2017-Nov-11 20:29N 59°20' E 018°05'0 0.0
2017-Nov-11 19:59N 59°20' E 018°05'0 0.0
2017-Nov-11 19:29N 59°20' E 018°05'0 0.0
2017-Nov-11 18:59N 59°20' E 018°05'0 0.0
2017-Nov-11 18:29N 59°20' E 018°05'1 1.3
2017-Nov-11 18:00N 59°19' E 018°05'510.4
2017-Nov-11 17:30N 59°21' E 018°15'4 8.7
2017-Nov-11 17:01N 59°24' E 018°21'4 8.1
2017-Nov-11 16:30N 59°27' E 018°27'2 4.8
2017-Nov-11 16:01N 59°28' E 018°31'4 7.7
2017-Nov-11 15:31N 59°27' E 018°23'3 6.3
2017-Nov-11 14:59N 59°24' E 018°21'0 0.0
2017-Nov-11 14:29N 59°24' E 018°21'4 7.3
2017-Nov-11 14:00N 59°26' E 018°28'611.1
2017-Nov-11 13:30N 59°22' E 018°36'4 5.4
2017-Nov-11 12:45N 59°23' E 018°44'2 5.7
2017-Nov-11 12:26N 59°24' E 018°47'3 6.6
2017-Nov-11 11:58N 59°24' E 018°53'3 5.7
2017-Nov-11 11:29N 59°27' E 018°55'0 0.0
2017-Nov-11 10:59N 59°27' E 018°55'3 5.1
2017-Nov-11 10:27N 59°24' E 018°53'3 5.5
2017-Nov-11 09:59N 59°23' E 018°49'1 2.5
2017-Nov-11 09:27N 59°23' E 018°46'3 5.4
2017-Nov-11 08:56N 59°23' E 018°41'4 8.5
2017-Nov-11 08:30N 59°23' E 018°33'612.0
2017-Nov-11 08:00N 59°25' E 018°22'510.5
2017-Nov-11 07:31N 59°21' E 018°15'510.6
2017-Nov-11 07:00N 59°20' E 018°04'0 0.1
2017-Nov-11 06:30N 59°20' E 018°04'0 0.0
2017-Nov-11 06:00N 59°20' E 018°04'0 0.0
2017-Nov-11 05:30N 59°20' E 018°04'0 0.0
2017-Nov-11 05:00N 59°20' E 018°04'0 0.0
2017-Nov-11 04:30N 59°20' E 018°04'0 0.0
2017-Nov-11 04:00N 59°20' E 018°04'0 0.0
2017-Nov-11 03:30N 59°20' E 018°04'0 0.0
2017-Nov-11 03:00N 59°20' E 018°04'0 0.0
2017-Nov-11 02:30N 59°20' E 018°04'0 0.0
2017-Nov-11 02:00N 59°20' E 018°04'0 0.0
2017-Nov-11 01:30N 59°20' E 018°04'0 0.0
2017-Nov-11 01:00N 59°20' E 018°04'0 0.0
2017-Nov-11 00:30N 59°20' E 018°04'0 0.0
2017-Nov-11 00:00N 59°20' E 018°04'0 0.0
2017-Nov-10 23:30N 59°20' E 018°04'0 0.0
2017-Nov-10 23:00N 59°20' E 018°04'0 0.0
2017-Nov-10 22:30N 59°20' E 018°04'0 0.0
2017-Nov-10 22:00N 59°20' E 018°04'0 0.0
2017-Nov-10 21:30N 59°20' E 018°04'0 0.0
2017-Nov-10 21:00N 59°20' E 018°04'0 0.0
2017-Nov-10 20:27N 59°20' E 018°04'0 0.0
2017-Nov-10 20:00N 59°20' E 018°04'0 0.0
2017-Nov-10 19:30N 59°20' E 018°04'0 0.0
2017-Nov-10 19:00N 59°20' E 018°04'0 0.0
2017-Nov-10 18:30N 59°20' E 018°04'0 0.0
2017-Nov-10 17:57N 59°20' E 018°04'0 0.0
2017-Nov-10 17:30N 59°20' E 018°04'0 0.0
2017-Nov-10 17:00N 59°20' E 018°04'0 0.0
2017-Nov-10 16:30N 59°20' E 018°04'0 0.0
2017-Nov-10 16:00N 59°20' E 018°04'0 0.0
2017-Nov-10 15:30N 59°20' E 018°04'0 0.0
2017-Nov-10 15:00N 59°20' E 018°04'0 0.0
2017-Nov-10 14:30N 59°20' E 018°04'0 0.0
2017-Nov-10 14:00N 59°20' E 018°04'0 0.0
2017-Nov-10 13:30N 59°20' E 018°04'0 0.0
2017-Nov-10 13:00N 59°20' E 018°04'0 0.0
2017-Nov-10 12:30N 59°20' E 018°04'0 0.0
2017-Nov-10 12:00N 59°20' E 018°04'0 0.0
2017-Nov-10 11:30N 59°20' E 018°04'0 0.0
2017-Nov-10 11:00N 59°20' E 018°04'0 0.0
2017-Nov-10 10:30N 59°20' E 018°04'0 0.0
2017-Nov-10 10:00N 59°20' E 018°04'0 0.0
2017-Nov-10 09:30N 59°20' E 018°04'0 0.0
2017-Nov-10 09:00N 59°20' E 018°04'0 0.0
2017-Nov-10 08:30N 59°20' E 018°04'0 0.0
2017-Nov-10 08:00N 59°20' E 018°04'0 0.0
2017-Nov-10 07:30N 59°20' E 018°04'0 0.0
2017-Nov-10 07:00N 59°20' E 018°04'4 8.1
2017-Nov-10 06:31N 59°20' E 018°12'5 9.2
2017-Nov-10 06:01N 59°23' E 018°20'2 3.3
2017-Nov-10 05:30N 59°24' E 018°23'0 0.5
2017-Nov-10 05:00N 59°24' E 018°22'1 1.2
2017-Nov-10 04:30N 59°24' E 018°21'0 0.0
2017-Nov-10 04:00N 59°24' E 018°21'0 0.0
2017-Nov-10 03:30N 59°24' E 018°21'0 0.0
2017-Nov-10 03:00N 59°24' E 018°21'0 0.0
2017-Nov-10 02:30N 59°24' E 018°21'0 0.0
2017-Nov-10 02:00N 59°24' E 018°21'0 0.0
2017-Nov-10 01:30N 59°24' E 018°21'0 0.0
2017-Nov-10 00:57N 59°24' E 018°21'  

Dump ship's entire track history